createdAt,value
2023-05-08T00:01:54.662Z,100.00
2023-05-08T00:04:42.421Z,100.00
2023-05-08T00:07:31.873Z,100.00
2023-05-08T00:10:19.816Z,100.00
2023-05-08T00:13:07.694Z,100.00
2023-05-08T00:15:55.780Z,100.00
2023-05-08T00:18:44.557Z,100.00
2023-05-08T00:21:32.721Z,100.00
2023-05-08T00:24:21.814Z,100.00
2023-05-08T00:27:09.802Z,100.00
2023-05-08T00:29:58.128Z,100.00
2023-05-08T00:32:47.017Z,100.00
2023-05-08T00:35:35.143Z,100.00
2023-05-08T00:38:23.222Z,100.00
2023-05-08T00:41:12.635Z,100.00
2023-05-08T00:44:00.266Z,100.00
2023-05-08T00:46:48.625Z,100.00
2023-05-08T00:49:36.843Z,100.00
2023-05-08T00:52:24.894Z,100.00
2023-05-08T00:55:13.170Z,100.00
2023-05-08T00:58:02.889Z,100.00
2023-05-08T01:00:55.415Z,100.00
2023-05-08T01:03:44.664Z,100.00
2023-05-08T01:06:34.048Z,100.00
2023-05-08T01:09:21.966Z,100.00
2023-05-08T01:12:21.202Z,100.00
2023-05-08T01:15:17.468Z,100.00
2023-05-08T01:18:14.407Z,100.00
2023-05-08T01:21:17.526Z,100.00
2023-05-08T01:24:24.475Z,100.00
2023-05-08T01:27:50.162Z,100.00
2023-05-08T01:31:06.668Z,100.00
2023-05-08T01:34:05.978Z,100.00
2023-05-08T01:37:00.747Z,100.00
2023-05-08T01:39:56.574Z,100.00
2023-05-08T01:42:50.502Z,100.00
2023-05-08T01:45:43.280Z,100.00
2023-05-08T01:48:35.234Z,100.00
2023-05-08T01:51:28.454Z,100.00
2023-05-08T01:54:22.682Z,100.00
2023-05-08T01:57:13.403Z,100.00
2023-05-08T02:00:03.766Z,100.00
2023-05-08T02:02:53.567Z,100.00
2023-05-08T02:05:43.078Z,100.00
2023-05-08T02:08:35.665Z,100.00
2023-05-08T02:11:26.288Z,100.00
2023-05-08T02:14:15.967Z,100.00
2023-05-08T02:17:05.350Z,100.00
2023-05-08T02:19:56.086Z,100.00
2023-05-08T02:22:46.110Z,100.00
2023-05-08T02:25:36.405Z,100.00
2023-05-08T02:28:25.352Z,100.00
2023-05-08T02:31:13.567Z,100.00
2023-05-08T02:34:02.572Z,100.00
2023-05-08T02:36:51.638Z,100.00
2023-05-08T02:39:40.522Z,100.00
2023-05-08T02:42:29.848Z,100.00
2023-05-08T02:45:17.751Z,100.00
2023-05-08T02:48:14.100Z,100.00
2023-05-08T02:51:15.048Z,100.00
2023-05-08T02:54:10.279Z,100.00
2023-05-08T02:57:04.912Z,100.00
2023-05-08T03:00:01.912Z,100.00
2023-05-08T03:02:53.882Z,100.00
2023-05-08T03:05:48.660Z,100.00
2023-05-08T03:08:38.126Z,100.00
2023-05-08T03:11:34.647Z,100.00
2023-05-08T03:14:27.671Z,100.00
2023-05-08T03:17:19.832Z,100.00
2023-05-08T03:20:13.459Z,100.00
2023-05-08T03:23:03.954Z,100.00
2023-05-08T03:25:53.833Z,100.00
2023-05-08T03:28:42.282Z,100.00
2023-05-08T03:31:33.090Z,100.00
2023-05-08T03:34:24.663Z,100.00
2023-05-08T03:37:13.076Z,100.00
2023-05-08T03:40:01.575Z,100.00
2023-05-08T03:42:49.978Z,100.00
2023-05-08T03:45:39.454Z,100.00
2023-05-08T03:48:28.554Z,100.00
2023-05-08T03:51:18.255Z,100.00
2023-05-08T03:54:06.291Z,100.00
2023-05-08T03:56:55.404Z,100.00
2023-05-08T03:59:52.068Z,100.00
2023-05-08T04:02:48.075Z,100.00
2023-05-08T04:05:39.131Z,100.00
2023-05-08T04:08:32.669Z,100.00
2023-05-08T04:11:26.808Z,100.00
2023-05-08T04:14:20.557Z,100.00
2023-05-08T04:17:13.881Z,100.00
2023-05-08T04:20:05.749Z,100.00
2023-05-08T04:22:58.226Z,100.00
2023-05-08T04:25:49.644Z,100.00
2023-05-08T04:28:37.651Z,100.00
2023-05-08T04:31:27.921Z,100.00
2023-05-08T04:34:16.217Z,100.00
2023-05-08T04:37:04.574Z,100.00
2023-05-08T04:39:53.446Z,100.00
2023-05-08T04:42:43.563Z,100.00
2023-05-08T04:45:31.406Z,100.00
2023-05-08T04:48:21.803Z,100.00
2023-05-08T04:51:09.834Z,100.00
2023-05-08T04:53:57.771Z,100.00
2023-05-08T04:56:45.681Z,100.00
2023-05-08T04:59:35.128Z,100.00
2023-05-08T05:02:23.219Z,100.00
2023-05-08T05:05:11.839Z,100.00
2023-05-08T05:07:59.860Z,100.00
2023-05-08T05:10:47.814Z,100.00
2023-05-08T05:13:35.938Z,100.00
2023-05-08T05:16:25.499Z,100.00
2023-05-08T05:19:13.439Z,100.00
2023-05-08T05:22:01.172Z,100.00
2023-05-08T05:24:49.009Z,100.00
2023-05-08T05:27:37.572Z,100.00
2023-05-08T05:30:25.480Z,100.00
2023-05-08T05:33:16.760Z,100.00
2023-05-08T05:36:04.996Z,100.00
2023-05-08T05:38:55.600Z,100.00
2023-05-08T05:41:44.257Z,100.00
2023-05-08T05:44:32.314Z,100.00
2023-05-08T05:47:20.594Z,100.00
2023-05-08T05:50:11.345Z,100.00
2023-05-08T05:52:59.078Z,100.00
2023-05-08T05:55:47.036Z,100.00
2023-05-08T05:58:35.382Z,100.00
2023-05-08T06:01:24.625Z,100.00
2023-05-08T06:04:12.413Z,100.00
2023-05-08T06:07:01.586Z,100.00
2023-05-08T06:09:51.056Z,100.00
2023-05-08T06:12:39.129Z,100.00
2023-05-08T06:15:27.106Z,100.00
2023-05-08T06:18:15.744Z,100.00
2023-05-08T06:21:03.634Z,100.00
2023-05-08T06:23:53.158Z,100.00
2023-05-08T06:26:41.641Z,100.00
2023-05-08T06:29:29.468Z,100.00
2023-05-08T06:32:17.644Z,100.00
2023-05-08T06:35:05.639Z,100.00
2023-05-08T06:37:53.709Z,100.00
2023-05-08T06:40:44.968Z,100.00
2023-05-08T06:43:32.697Z,100.00
2023-05-08T06:46:21.692Z,100.00
2023-05-08T06:49:09.681Z,100.00
2023-05-08T06:51:58.233Z,100.00
2023-05-08T06:54:46.120Z,100.00
2023-05-08T06:57:35.245Z,100.00
2023-05-08T07:00:23.187Z,100.00
2023-05-08T07:03:11.670Z,100.00
2023-05-08T07:05:59.636Z,100.00
2023-05-08T07:08:47.592Z,100.00
2023-05-08T07:11:35.508Z,100.00
2023-05-08T07:14:24.982Z,100.00
2023-05-08T07:17:12.752Z,100.00
2023-05-08T07:20:00.720Z,100.00
2023-05-08T07:22:48.562Z,100.00
2023-05-08T07:25:36.786Z,100.00
2023-05-08T07:28:25.101Z,100.00
2023-05-08T07:31:14.420Z,100.00
2023-05-08T07:34:02.540Z,100.00
2023-05-08T07:36:50.393Z,100.00
2023-05-08T07:39:38.264Z,99.83
2023-05-08T07:42:26.635Z,100.00
2023-05-08T07:45:15.503Z,100.00
2023-05-08T07:48:05.420Z,100.00
2023-05-08T07:50:53.382Z,100.00
2023-05-08T07:53:41.258Z,100.00
2023-05-08T07:56:29.391Z,100.00
2023-05-08T07:59:17.466Z,100.00
2023-05-08T08:02:05.524Z,100.00
2023-05-08T08:04:54.979Z,100.00
2023-05-08T08:07:43.079Z,100.00
2023-05-08T08:10:31.518Z,100.00
2023-05-08T08:13:19.526Z,100.00
2023-05-08T08:16:08.275Z,100.00
2023-05-08T08:18:56.317Z,100.00
2023-05-08T08:21:46.286Z,100.00
2023-05-08T08:24:34.349Z,99.67
2023-05-08T08:27:22.259Z,97.89
2023-05-08T08:30:17.715Z,98.97
2023-05-08T08:33:06.508Z,94.43
2023-05-08T08:35:54.533Z,99.77
2023-05-08T08:38:43.859Z,98.52
2023-05-08T08:41:33.320Z,94.03
2023-05-08T08:44:21.377Z,89.22
2023-05-08T08:47:13.098Z,94.95
2023-05-08T08:50:04.062Z,96.03
2023-05-08T08:53:02.494Z,90.80
2023-05-08T08:55:55.527Z,88.86
2023-05-08T08:58:51.078Z,88.13
2023-05-08T09:01:42.176Z,86.38
2023-05-08T09:04:31.967Z,84.70
2023-05-08T09:07:20.984Z,85.87
2023-05-08T09:10:15.188Z,85.89
2023-05-08T09:13:05.630Z,82.11
2023-05-08T09:15:56.343Z,81.06
2023-05-08T09:18:44.554Z,81.36
2023-05-08T09:21:32.960Z,80.51
2023-05-08T09:24:21.099Z,76.79
2023-05-08T09:27:22.166Z,81.25
2023-05-08T09:30:12.733Z,77.99
2023-05-08T09:33:06.282Z,77.14
2023-05-08T09:35:54.702Z,72.08
2023-05-08T09:38:44.013Z,74.93
2023-05-08T09:41:31.931Z,78.76
2023-05-08T09:44:22.391Z,78.84
2023-05-08T09:47:16.109Z,76.37
2023-05-08T09:50:05.103Z,76.28
2023-05-08T09:52:54.273Z,77.40
2023-05-08T09:55:51.993Z,71.49
2023-05-08T09:58:41.205Z,74.28
2023-05-08T10:01:34.141Z,67.88
2023-05-08T10:04:35.343Z,71.20
2023-05-08T10:07:30.406Z,77.61
2023-05-08T10:10:26.124Z,72.36
2023-05-08T10:13:14.526Z,71.67
2023-05-08T10:16:02.819Z,68.60
2023-05-08T10:18:51.955Z,71.69
2023-05-08T10:21:44.598Z,72.75
2023-05-08T10:24:34.825Z,71.26
2023-05-08T10:27:31.966Z,73.72
2023-05-08T10:30:25.258Z,76.69
2023-05-08T10:33:16.084Z,75.55
2023-05-08T10:36:04.426Z,71.13
2023-05-08T10:38:55.258Z,70.47
2023-05-08T10:41:43.750Z,70.51
2023-05-08T10:44:32.822Z,78.88
2023-05-08T10:47:26.231Z,74.79
2023-05-08T10:50:27.007Z,70.93
2023-05-08T10:53:20.035Z,71.43
2023-05-08T10:56:10.011Z,69.04
2023-05-08T10:58:58.825Z,70.18
2023-05-08T11:01:50.226Z,67.48
2023-05-08T11:04:38.372Z,63.00
2023-05-08T11:07:54.310Z,68.98
2023-05-08T11:10:43.617Z,65.51
2023-05-08T11:13:36.146Z,67.11
2023-05-08T11:16:57.563Z,64.64
2023-05-08T11:19:58.163Z,64.55
2023-05-08T11:22:49.578Z,66.34
2023-05-08T11:25:47.290Z,65.91
2023-05-08T11:28:40.621Z,64.78
2023-05-08T11:31:51.520Z,62.31
2023-05-08T11:34:49.901Z,65.16
2023-05-08T11:37:38.306Z,61.80
2023-05-08T11:40:49.980Z,63.62
2023-05-08T11:44:14.880Z,62.36
2023-05-08T11:47:06.513Z,62.95
2023-05-08T11:49:57.138Z,61.15
2023-05-08T11:52:45.043Z,62.22
2023-05-08T11:55:33.256Z,58.50
2023-05-08T11:58:21.641Z,58.90
2023-05-08T12:01:11.102Z,58.98
2023-05-08T12:04:03.129Z,60.70
2023-05-08T12:06:51.728Z,57.51
2023-05-08T12:09:39.741Z,61.66
2023-05-08T12:12:38.040Z,61.91
2023-05-08T12:15:25.708Z,58.48
2023-05-08T12:18:16.151Z,62.25
2023-05-08T12:21:04.183Z,62.20
2023-05-08T12:23:52.179Z,61.17
2023-05-08T12:26:40.367Z,61.75
2023-05-08T12:29:28.147Z,61.46
2023-05-08T12:32:16.340Z,61.94
2023-05-08T12:35:07.596Z,61.98
2023-05-08T12:37:55.241Z,61.68
2023-05-08T12:40:44.495Z,62.11
2023-05-08T12:43:35.929Z,57.93
2023-05-08T12:46:23.679Z,60.59
2023-05-08T12:49:12.846Z,62.82
2023-05-08T12:52:06.821Z,61.42
2023-05-08T12:54:54.872Z,60.63
2023-05-08T12:57:45.049Z,61.58
2023-05-08T13:00:39.288Z,61.62
2023-05-08T13:03:28.826Z,61.09
2023-05-08T13:06:27.002Z,60.81
2023-05-08T13:09:26.537Z,61.47
2023-05-08T13:12:14.968Z,61.36
2023-05-08T13:15:04.753Z,61.94
2023-05-08T13:17:53.597Z,61.80
2023-05-08T13:20:41.549Z,60.88
2023-05-08T13:23:29.486Z,61.28
2023-05-08T13:26:18.418Z,60.51
2023-05-08T13:29:06.232Z,59.41
2023-05-08T13:31:54.276Z,59.50
2023-05-08T13:34:49.799Z,61.29
2023-05-08T13:37:41.945Z,60.83
2023-05-08T13:40:30.265Z,60.12
2023-05-08T13:43:19.443Z,60.96
2023-05-08T13:46:07.344Z,61.33
2023-05-08T13:48:55.196Z,58.46
2023-05-08T13:51:49.115Z,60.10
2023-05-08T13:54:37.656Z,59.74
2023-05-08T13:57:28.184Z,58.05
2023-05-08T14:00:19.141Z,56.66
2023-05-08T14:03:07.165Z,58.75
2023-05-08T14:05:55.173Z,59.86
2023-05-08T14:08:46.582Z,57.44
2023-05-08T14:11:36.330Z,59.50
2023-05-08T14:14:24.258Z,55.42
2023-05-08T14:17:13.612Z,55.22
2023-05-08T14:20:01.708Z,61.36
2023-05-08T14:22:49.748Z,61.01
2023-05-08T14:25:37.813Z,59.47
2023-05-08T14:28:26.498Z,56.02
2023-05-08T14:31:14.424Z,57.14
2023-05-08T14:34:03.724Z,60.07
2023-05-08T14:36:51.774Z,56.09
2023-05-08T14:39:40.049Z,59.48
2023-05-08T14:42:29.898Z,59.95
2023-05-08T14:45:17.929Z,59.02
2023-05-08T14:48:07.704Z,60.43
2023-05-08T14:50:58.439Z,60.10
2023-05-08T14:53:46.369Z,59.27
2023-05-08T14:59:49.342Z,60.78
2023-05-08T15:02:42.541Z,61.18
2023-05-08T15:05:30.579Z,58.08
2023-05-08T15:08:20.171Z,57.82
2023-05-08T15:11:08.212Z,60.73
2023-05-08T15:14:01.564Z,55.08
2023-05-08T15:16:49.749Z,59.38
2023-05-08T15:19:37.666Z,56.98
2023-05-08T15:22:26.555Z,59.19
2023-05-08T15:25:17.613Z,60.02
2023-05-08T15:28:05.952Z,60.54
2023-05-08T15:30:53.873Z,61.24
2023-05-08T15:33:44.690Z,61.55
2023-05-08T15:36:34.142Z,61.88
2023-05-08T15:39:21.736Z,56.61
2023-05-08T15:42:10.995Z,61.52
2023-05-08T15:44:58.783Z,58.46
2023-05-08T15:47:47.116Z,59.15
2023-05-08T15:50:34.969Z,59.59
2023-05-08T15:53:22.983Z,59.87
2023-05-08T15:56:11.921Z,60.22
2023-05-08T15:59:01.278Z,58.10
2023-05-08T16:01:50.306Z,59.34
2023-05-08T16:04:39.374Z,61.30
2023-05-08T16:07:27.222Z,60.82
2023-05-08T16:10:15.249Z,61.00
2023-05-08T16:13:03.285Z,57.25
2023-05-08T16:15:52.889Z,59.32
2023-05-08T16:18:40.678Z,61.20
2023-05-08T16:21:28.574Z,58.09
2023-05-08T16:24:16.598Z,58.75
2023-05-08T16:27:04.503Z,55.47
2023-05-08T16:29:52.489Z,59.19
2023-05-08T16:32:41.729Z,61.84
2023-05-08T16:35:30.189Z,58.94
2023-05-08T16:38:18.178Z,59.89
2023-05-08T16:41:09.083Z,55.31
2023-05-08T16:43:56.790Z,55.48
2023-05-08T16:46:44.886Z,60.38
2023-05-08T16:49:34.377Z,61.22
2023-05-08T16:52:22.633Z,59.47
2023-05-08T16:55:11.457Z,59.27
2023-05-08T16:57:59.123Z,53.93
2023-05-08T17:00:47.436Z,60.39
2023-05-08T17:03:35.746Z,58.36
2023-05-08T17:06:24.717Z,59.84
2023-05-08T17:09:12.479Z,57.54
2023-05-08T17:12:01.875Z,59.99
2023-05-08T17:14:49.954Z,60.07
2023-05-08T17:17:38.041Z,58.51
2023-05-08T17:20:26.221Z,62.15
2023-05-08T17:23:15.338Z,59.95
2023-05-08T17:26:03.237Z,60.83
2023-05-08T17:28:51.231Z,62.54
2023-05-08T17:31:39.664Z,61.04
2023-05-08T17:34:27.826Z,61.12
2023-05-08T17:37:15.742Z,61.10
2023-05-08T17:40:04.992Z,63.02
2023-05-08T17:42:55.307Z,62.20
2023-05-08T17:45:44.146Z,63.07
2023-05-08T17:48:32.097Z,63.14
2023-05-08T17:51:20.295Z,64.99
2023-05-08T17:54:08.484Z,64.18
2023-05-08T17:56:58.028Z,64.62
2023-05-08T17:59:45.764Z,64.29
2023-05-08T18:02:33.718Z,63.86
2023-05-08T18:05:22.089Z,66.33
2023-05-08T18:08:09.839Z,66.03
2023-05-08T18:10:57.731Z,66.80
2023-05-08T18:13:47.182Z,67.36
2023-05-08T18:16:35.417Z,67.64
2023-05-08T18:19:23.564Z,67.32
2023-05-08T18:22:11.228Z,68.50
2023-05-08T18:25:00.526Z,68.84
2023-05-08T18:27:49.987Z,69.04
2023-05-08T18:30:40.187Z,68.09
2023-05-08T18:33:28.103Z,66.37
2023-05-08T18:36:16.187Z,70.04
2023-05-08T18:39:04.477Z,71.14
2023-05-08T18:41:52.545Z,71.02
2023-05-08T18:44:40.965Z,71.88
2023-05-08T18:47:30.454Z,71.69
2023-05-08T18:50:18.107Z,72.28
2023-05-08T18:53:06.672Z,72.36
2023-05-08T18:55:54.615Z,71.00
2023-05-08T18:58:42.750Z,73.53
2023-05-08T19:01:30.809Z,73.22
2023-05-08T19:04:19.954Z,72.10
2023-05-08T19:07:07.987Z,73.95
2023-05-08T19:09:56.596Z,75.07
2023-05-08T19:12:44.448Z,72.89
2023-05-08T19:15:32.444Z,75.11
2023-05-08T19:18:20.348Z,76.38
2023-05-08T19:21:09.553Z,76.61
2023-05-08T19:23:57.452Z,76.34
2023-05-08T19:26:45.536Z,76.41
2023-05-08T19:29:34.860Z,77.51
2023-05-08T19:32:23.698Z,78.31
2023-05-08T19:35:11.983Z,79.00
2023-05-08T19:38:03.780Z,79.02
2023-05-08T19:40:56.471Z,79.56
2023-05-08T19:43:45.033Z,78.14
2023-05-08T19:46:33.154Z,80.61
2023-05-08T19:49:20.959Z,80.99
2023-05-08T19:52:09.136Z,81.43
2023-05-08T19:54:58.548Z,81.94
2023-05-08T19:57:46.762Z,82.56
2023-05-08T20:00:34.451Z,82.87
2023-05-08T20:03:22.391Z,83.56
2023-05-08T20:06:10.352Z,84.05
2023-05-08T20:08:58.330Z,84.11
2023-05-08T20:11:48.055Z,84.92
2023-05-08T20:14:35.672Z,85.36
2023-05-08T20:17:23.698Z,85.66
2023-05-08T20:20:13.650Z,86.41
2023-05-08T20:23:01.785Z,86.60
2023-05-08T20:25:49.516Z,86.92
2023-05-08T20:28:38.742Z,87.22
2023-05-08T20:31:27.812Z,87.69
2023-05-08T20:34:16.030Z,87.94
2023-05-08T20:37:03.901Z,88.32
2023-05-08T20:39:51.813Z,88.72
2023-05-08T20:42:40.998Z,88.99
2023-05-08T20:45:30.345Z,89.52
2023-05-08T20:48:18.146Z,89.93
2023-05-08T20:51:06.255Z,90.75
2023-05-08T20:53:54.231Z,90.94
2023-05-08T20:56:42.611Z,91.43
2023-05-08T20:59:30.890Z,91.46
2023-05-08T21:02:20.201Z,91.62
2023-05-08T21:05:09.258Z,92.11
2023-05-08T21:08:00.139Z,92.56
2023-05-08T21:10:47.896Z,92.83
2023-05-08T21:13:36.087Z,93.04
2023-05-08T21:16:26.224Z,94.00
2023-05-08T21:19:17.437Z,94.13
2023-05-08T21:22:07.455Z,96.22
2023-05-08T21:24:55.211Z,95.87
2023-05-08T21:27:43.382Z,95.53
2023-05-08T21:30:31.394Z,95.47
2023-05-08T21:33:19.882Z,95.55
2023-05-08T21:36:09.571Z,95.37
2023-05-08T21:38:57.708Z,95.78
2023-05-08T21:41:45.546Z,97.43
2023-05-08T21:44:33.397Z,96.73
2023-05-08T21:47:22.470Z,96.13
2023-05-08T21:50:11.187Z,96.38
2023-05-08T21:53:00.639Z,97.13
2023-05-08T21:55:48.228Z,97.05
2023-05-08T21:58:36.280Z,96.86
2023-05-08T22:01:24.261Z,97.01
2023-05-08T22:04:12.201Z,97.39
2023-05-08T22:07:00.217Z,97.27
2023-05-08T22:09:49.537Z,97.55
2023-05-08T22:12:37.547Z,98.48
2023-05-08T22:15:29.799Z,98.15
2023-05-08T22:18:18.399Z,100.00
2023-05-08T22:21:06.769Z,98.88
2023-05-08T22:23:54.612Z,98.89
2023-05-08T22:26:43.897Z,99.18
2023-05-08T22:29:31.909Z,99.27
2023-05-08T22:32:19.663Z,100.00
2023-05-08T22:35:08.366Z,99.75
2023-05-08T22:37:57.304Z,100.00
2023-05-08T22:40:47.644Z,99.98
2023-05-08T22:43:36.949Z,99.98
2023-05-08T22:46:25.171Z,99.95
2023-05-08T22:49:13.164Z,100.00
2023-05-08T22:52:01.535Z,100.00
2023-05-08T22:54:49.327Z,100.00
2023-05-08T22:57:37.237Z,100.00
2023-05-08T23:00:26.728Z,100.00
2023-05-08T23:03:16.441Z,100.00
2023-05-08T23:06:04.122Z,100.00
2023-05-08T23:08:52.073Z,100.00
2023-05-08T23:11:40.150Z,100.00
2023-05-08T23:14:28.266Z,100.00
2023-05-08T23:17:17.590Z,100.00
2023-05-08T23:20:06.334Z,100.00
2023-05-08T23:22:54.028Z,100.00
2023-05-08T23:25:42.041Z,100.00
2023-05-08T23:28:30.072Z,100.00
2023-05-08T23:31:19.200Z,100.00
2023-05-08T23:34:09.264Z,100.00
2023-05-08T23:36:57.134Z,100.00
2023-05-08T23:39:45.108Z,100.00
2023-05-08T23:42:33.176Z,100.00
2023-05-08T23:45:21.150Z,100.00
2023-05-08T23:48:08.970Z,100.00
2023-05-08T23:50:58.228Z,100.00
2023-05-08T23:53:46.420Z,100.00
2023-05-08T23:56:35.003Z,100.00
2023-05-08T23:59:22.862Z,100.00
